Time;durP1;ratioP1;P1;durP2;ratioP2;P2;SDS_P1;SDS_P2;PMS_P1;PMS_P2;Temp;Humidity;BMP_temperature;BMP_pressure;BME280_temperature;BME280_humidity;BME280_pressure;Samples;Min_cycle;Max_cycle;Signal;HPM_P1;HPM_P2
2023/09/11 00:01:28;;;;;;;19.65;16.17;;;26.60;73.40;;;;;;4187241;28;20063;-60
2023/09/11 00:04:09;;;;;;;17.23;15.35;;;26.50;73.20;;;;;;4186961;28;20483;-60
2023/09/11 00:06:50;;;;;;;;;;;26.50;73.40;;;;;;4187779;28;20128;-61
2023/09/11 00:09:33;;;;;;;19.80;15.85;;;26.50;73.60;;;;;;4186423;28;19927;-60
2023/09/11 00:12:15;;;;;;;17.05;15.25;;;26.50;73.80;;;;;;4187497;28;20150;-59
2023/09/11 00:14:57;;;;;;;15.98;14.00;;;26.50;73.80;;;;;;4185998;28;20067;-59
2023/09/11 00:17:38;;;;;;;19.95;14.32;;;26.50;73.90;;;;;;4186776;28;20455;-60
2023/09/11 00:20:20;;;;;;;16.10;14.40;;;26.40;74.00;;;;;;4184715;28;20063;-59
2023/09/11 00:23:01;;;;;;;19.60;14.32;;;26.40;74.00;;;;;;4184515;28;20052;-61
2023/09/11 00:25:44;;;;;;;17.85;14.30;;;26.40;74.00;;;;;;4185259;28;20403;-59
2023/09/11 00:28:25;;;;;;;18.38;14.85;;;26.40;74.00;;;;;;4185550;28;20606;-58
2023/09/11 00:31:06;;;;;;;20.45;13.70;;;26.40;74.00;;;;;;4168261;28;20059;-59
2023/09/11 00:33:47;;;;;;;;;;;26.40;74.00;;;;;;4167587;28;20158;-59
2023/09/11 00:36:28;;;;;;;21.10;14.40;;;26.40;74.10;;;;;;4178961;28;19978;-59
2023/09/11 00:39:10;;;;;;;16.23;13.93;;;26.40;74.30;;;;;;4176032;28;20055;-59
2023/09/11 00:41:52;;;;;;;20.02;14.65;;;26.40;74.30;;;;;;4184929;28;20097;-60
2023/09/11 00:44:33;;;;;;;18.25;15.20;;;26.30;74.30;;;;;;4186700;28;20051;-58
2023/09/11 00:47:14;;;;;;;;;;;26.30;74.30;;;;;;4169596;28;20059;-59
2023/09/11 00:49:58;;;;;;;17.83;15.55;;;26.30;74.30;;;;;;4184562;28;20283;-59
2023/09/11 00:52:40;;;;;;;16.00;14.43;;;26.30;74.50;;;;;;4185703;28;20129;-59
2023/09/11 00:55:22;;;;;;;17.90;14.50;;;26.30;74.40;;;;;;4185897;28;20498;-59
2023/09/11 00:58:05;;;;;;;20.60;14.63;;;26.30;74.30;;;;;;4185938;28;20055;-59
2023/09/11 01:00:47;;;;;;;18.10;15.77;;;26.30;74.20;;;;;;4171514;28;20392;-58
2023/09/11 01:03:29;;;;;;;19.88;15.68;;;26.30;74.20;;;;;;4174407;28;20056;-59
2023/09/11 01:06:10;;;;;;;;;;;26.30;74.20;;;;;;4186715;28;20070;-59
2023/09/11 01:08:54;;;;;;;18.98;13.73;;;26.30;74.20;;;;;;4186225;28;19935;-59
2023/09/11 01:11:36;;;;;;;16.38;14.15;;;26.30;74.20;;;;;;4175487;28;20174;-59
2023/09/11 01:14:19;;;;;;;20.55;14.80;;;26.20;74.00;;;;;;4167692;28;20051;-60
2023/09/11 01:17:04;;;;;;;16.77;14.93;;;26.20;73.80;;;;;;4169701;28;20060;-59
2023/09/11 01:20:09;;;;;;;23.83;14.80;;;26.20;73.90;;;;;;4181345;28;20478;-60
2023/09/11 01:23:17;;;;;;;18.48;14.65;;;26.20;74.00;;;;;;4178517;28;20067;-59
2023/09/11 01:26:11;;;;;;;19.92;14.75;;;26.20;74.10;;;;;;4166320;28;20048;-59
2023/09/11 01:29:17;;;;;;;18.90;14.05;;;26.20;74.20;;;;;;4173468;28;20958;-58
2023/09/11 01:32:02;;;;;;;19.92;15.10;;;26.20;73.90;;;;;;4184235;28;20083;-60
2023/09/11 01:34:43;;;;;;;15.90;13.27;;;26.20;74.30;;;;;;4186174;28;20111;-60
2023/09/11 01:37:24;;;;;;;20.33;14.57;;;26.20;74.20;;;;;;4185679;28;20059;-60
2023/09/11 01:40:05;;;;;;;;;;;26.10;74.00;;;;;;4185955;28;20552;-60
2023/09/11 01:42:56;;;;;;;20.75;14.10;;;26.10;74.10;;;;;;4185123;28;19932;-60
2023/09/11 01:45:41;;;;;;;17.40;14.10;;;26.10;74.00;;;;;;4184685;28;20048;-59
2023/09/11 01:48:24;;;;;;;23.08;14.50;;;26.10;74.00;;;;;;4185937;28;20052;-59
2023/09/11 01:51:07;;;;;;;17.27;14.63;;;26.10;73.90;;;;;;4166094;28;20178;-59
2023/09/11 01:53:48;;;;;;;21.38;14.15;;;26.10;73.90;;;;;;4168451;28;20059;-60
2023/09/11 01:56:29;;;;;;;16.25;13.80;;;26.10;74.00;;;;;;4173021;28;20067;-60
2023/09/11 01:59:10;;;;;;;19.10;15.10;;;26.00;74.00;;;;;;4181737;28;20051;-60
2023/09/11 02:01:52;;;;;;;16.58;14.18;;;26.10;74.00;;;;;;4171416;28;20055;-60
2023/09/11 02:04:34;;;;;;;18.75;14.70;;;26.10;74.00;;;;;;4171658;28;20165;-60
2023/09/11 02:07:15;;;;;;;20.08;13.95;;;26.10;74.00;;;;;;4171522;28;20428;-59
2023/09/11 02:09:56;;;;;;;23.80;13.98;;;26.10;74.00;;;;;;4171566;28;20463;-58
2023/09/11 02:12:37;;;;;;;18.85;14.73;;;26.10;73.90;;;;;;4159814;28;20056;-59
2023/09/11 02:15:18;;;;;;;;;;;26.00;74.00;;;;;;4172975;28;20490;-58
2023/09/11 02:18:00;;;;;;;16.03;13.80;;;26.00;74.10;;;;;;4188185;28;19928;-59
2023/09/11 02:20:41;;;;;;;21.92;13.63;;;26.00;74.20;;;;;;4188919;28;20047;-59
2023/09/11 02:23:23;;;;;;;18.73;13.15;;;26.00;74.20;;;;;;4188696;28;20058;-59
2023/09/11 02:26:04;;;;;;;20.70;14.20;;;26.00;74.10;;;;;;4188472;28;20130;-59
2023/09/11 02:28:45;;;;;;;17.77;13.50;;;26.00;74.00;;;;;;4188252;28;20141;-59
2023/09/11 02:31:26;;;;;;;18.92;14.30;;;26.00;74.00;;;;;;4188413;28;20190;-59
2023/09/11 02:34:08;;;;;;;17.23;14.45;;;26.00;73.80;;;;;;4180816;28;20056;-60
2023/09/11 02:36:50;;;;;;;19.58;13.80;;;25.90;73.60;;;;;;4172812;28;20056;-60
2023/09/11 02:39:31;;;;;;;19.02;14.45;;;25.90;73.70;;;;;;4183623;28;20159;-60
2023/09/11 02:42:12;;;;;;;18.90;13.85;;;25.90;73.80;;;;;;4187119;28;20059;-60
2023/09/11 02:44:53;;;;;;;15.95;13.40;;;25.90;73.90;;;;;;4186643;28;20693;-60
2023/09/11 02:47:34;;;;;;;;;;;25.90;73.90;;;;;;4189132;28;20125;-60
2023/09/11 02:50:17;;;;;;;22.83;13.88;;;25.90;74.00;;;;;;4185684;28;19927;-60
2023/09/11 02:52:58;;;;;;;18.40;13.38;;;25.90;74.20;;;;;;4170771;28;20056;-60
2023/09/11 02:55:39;;;;;;;19.23;14.23;;;25.90;74.10;;;;;;4170522;28;20060;-60
2023/09/11 02:58:21;;;;;;;18.00;13.30;;;25.90;75.00;;;;;;4174469;28;20130;-60
2023/09/11 03:01:03;;;;;;;17.50;13.60;;;25.90;74.00;;;;;;4171796;28;20052;-58
2023/09/11 03:03:44;;;;;;;16.55;13.63;;;25.90;73.90;;;;;;4170958;28;20408;-60
2023/09/11 03:06:27;;;;;;;20.80;13.52;;;25.90;73.80;;;;;;4156317;28;20602;-60
2023/09/11 03:09:08;;;;;;;17.73;14.18;;;25.90;73.80;;;;;;4179212;28;20051;-60
2023/09/11 03:11:49;;;;;;;21.75;15.13;;;25.90;73.70;;;;;;4187571;28;20051;-60
2023/09/11 03:14:30;;;;;;;17.42;13.35;;;25.90;73.90;;;;;;4170445;28;20056;-61
2023/09/11 03:17:14;;;;;;;16.88;13.23;;;25.90;73.90;;;;;;4183370;28;20673;-61
2023/09/11 03:19:55;;;;;;;18.92;13.82;;;25.80;73.80;;;;;;4186873;28;20067;-61
2023/09/11 03:22:38;;;;;;;18.10;13.90;;;25.80;74.70;;;;;;4186140;28;20054;-60
2023/09/11 03:25:19;;;;;;;18.25;13.60;;;25.80;73.80;;;;;;4187340;28;20470;-60
2023/09/11 03:28:01;;;;;;;21.38;13.40;;;25.80;73.90;;;;;;4171823;28;20124;-61
2023/09/11 03:30:42;;;;;;;19.88;13.80;;;25.80;73.90;;;;;;4169727;28;20052;-61
2023/09/11 03:33:23;;;;;;;18.83;13.32;;;25.80;73.90;;;;;;4170442;28;20507;-60
2023/09/11 03:36:04;;;;;;;20.63;13.43;;;25.80;73.90;;;;;;4169878;28;20530;-61
2023/09/11 03:38:47;;;;;;;16.30;11.73;;;25.80;73.90;;;;;;4176342;28;20530;-60
2023/09/11 03:41:29;;;;;;;16.70;12.82;;;25.80;73.70;;;;;;4169388;28;20828;-60
2023/09/11 03:44:10;;;;;;;15.95;12.60;;;25.80;73.70;;;;;;4175736;28;20117;-60
2023/09/11 03:46:51;;;;;;;;;;;25.80;73.80;;;;;;4187132;28;20105;-60
2023/09/11 03:49:33;;;;;;;17.65;12.23;;;25.80;74.00;;;;;;4174890;28;19931;-60
2023/09/11 03:52:13;;;;;;;15.65;13.07;;;25.80;74.10;;;;;;4167481;28;20222;-60
2023/09/11 03:54:56;;;;;;;16.95;13.40;;;25.70;73.70;;;;;;4170967;28;20052;-60
2023/09/11 03:57:38;;;;;;;15.30;12.77;;;25.80;73.80;;;;;;4171055;28;20412;-61
2023/09/11 04:00:19;;;;;;;15.88;12.30;;;25.70;73.70;;;;;;4158188;28;20091;-61
2023/09/11 04:03:00;;;;;;;20.67;13.38;;;25.80;73.90;;;;;;4170579;28;20130;-61
2023/09/11 04:05:41;;;;;;;17.80;13.80;;;25.70;73.80;;;;;;4169259;28;20119;-61
2023/09/11 04:08:22;;;;;;;19.98;12.98;;;25.70;73.80;;;;;;4171241;28;20051;-61
2023/09/11 04:11:05;;;;;;;18.20;13.18;;;25.70;73.70;;;;;;4187311;28;20056;-60
2023/09/11 04:13:46;;;;;;;19.42;12.95;;;25.70;73.60;;;;;;4174431;28;20133;-60
2023/09/11 04:16:27;;;;;;;17.92;13.38;;;25.70;73.60;;;;;;4187660;28;20511;-60
2023/09/11 04:19:08;;;;;;;19.00;13.02;;;25.70;73.80;;;;;;4180909;28;20059;-60
2023/09/11 04:21:49;;;;;;;18.00;13.05;;;25.70;73.90;;;;;;4181193;28;20137;-60
2023/09/11 04:24:31;;;;;;;18.60;13.63;;;25.70;73.90;;;;;;4181098;28;20316;-60
2023/09/11 04:27:13;;;;;;;15.48;13.07;;;25.70;74.00;;;;;;4170929;28;20403;-60
2023/09/11 04:29:56;;;;;;;18.83;13.27;;;25.60;73.90;;;;;;4169435;28;20408;-60
2023/09/11 04:32:37;;;;;;;20.02;13.10;;;25.70;74.00;;;;;;4176315;28;20086;-60
2023/09/11 04:35:20;;;;;;;;;;;25.60;73.90;;;;;;4187833;28;20169;-59
2023/09/11 04:38:01;;;;;;;25.40;13.18;;;25.60;74.10;;;;;;4181650;28;20642;-61
2023/09/11 04:40:42;;;;;;;;;;;25.60;74.30;;;;;;4186247;28;20047;-60
2023/09/11 04:43:24;;;;;;;17.05;12.82;;;25.60;74.30;;;;;;4187228;28;20037;-60
2023/09/11 04:46:06;;;;;;;21.90;13.35;;;25.60;74.60;;;;;;4184542;28;20071;-60
2023/09/11 04:48:47;;;;;;;;;;;25.60;74.40;;;;;;4181539;28;20121;-60
2023/09/11 04:51:28;;;;;;;22.23;14.07;;;25.60;74.40;;;;;;4185825;28;19927;-61
2023/09/11 04:54:09;;;;;;;20.55;13.32;;;25.60;74.50;;;;;;4187260;28;20509;-60
2023/09/11 04:56:50;;;;;;;19.20;13.75;;;25.60;74.30;;;;;;4185477;28;20179;-61
2023/09/11 04:59:33;;;;;;;20.13;13.98;;;25.60;74.20;;;;;;4185313;28;20124;-56
2023/09/11 05:02:16;;;;;;;18.15;13.23;;;25.60;74.10;;;;;;4170562;28;20048;-55
2023/09/11 05:04:58;;;;;;;17.95;13.75;;;25.60;74.20;;;;;;4168716;28;20068;-58
2023/09/11 05:07:38;;;;;;;18.23;12.77;;;25.60;74.10;;;;;;4186053;28;20503;-62
2023/09/11 05:10:20;;;;;;;21.77;13.30;;;25.50;74.10;;;;;;4177791;28;20598;-61
2023/09/11 05:13:01;;;;;;;15.68;13.05;;;25.50;74.10;;;;;;4185498;28;20129;-60
2023/09/11 05:15:45;;;;;;;20.75;13.77;;;25.50;74.10;;;;;;4185037;28;20043;-61
2023/09/11 05:18:26;;;;;;;21.42;14.02;;;25.50;74.10;;;;;;4169683;28;20404;-54
2023/09/11 05:21:07;;;;;;;;;;;25.50;74.30;;;;;;4168747;28;20198;-59
2023/09/11 05:23:49;;;;;;;18.13;13.48;;;25.50;74.50;;;;;;4157638;28;19932;-58
2023/09/11 05:26:30;;;;;;;19.65;13.45;;;25.50;75.00;;;;;;4173033;28;20064;-55
2023/09/11 05:29:11;;;;;;;23.10;13.57;;;25.50;75.10;;;;;;4185256;28;20408;-55
2023/09/11 05:31:54;;;;;;;19.38;13.80;;;25.50;75.00;;;;;;4189537;28;20051;-52
2023/09/11 05:34:34;;;;;;;20.83;13.27;;;25.50;75.00;;;;;;4189880;28;20403;-55
2023/09/11 05:37:17;;;;;;;;;;;25.50;75.00;;;;;;4190154;28;20561;-53
2023/09/11 05:39:58;;;;;;;16.67;13.45;;;25.50;75.00;;;;;;4187205;28;20288;-58
2023/09/11 05:42:39;;;;;;;19.13;12.85;;;25.50;75.20;;;;;;4173595;28;20057;-58
2023/09/11 05:45:20;;;;;;;18.00;12.88;;;25.50;75.00;;;;;;4180493;28;20051;-58
2023/09/11 05:48:03;;;;;;;25.20;13.25;;;25.50;75.00;;;;;;4188947;28;20178;-58
2023/09/11 05:50:44;;;;;;;18.42;13.15;;;25.50;74.90;;;;;;4186514;28;20051;-59
2023/09/11 05:53:25;;;;;;;19.48;12.55;;;25.50;74.80;;;;;;4172113;28;20056;-59
2023/09/11 05:56:07;;;;;;;18.42;12.93;;;25.50;74.70;;;;;;4189301;28;20060;-54
2023/09/11 05:58:48;;;;;;;;;;;25.50;74.60;;;;;;4189635;28;20665;-56
2023/09/11 06:01:29;;;;;;;22.13;13.57;;;25.50;74.60;;;;;;4189499;28;19932;-55
2023/09/11 06:04:11;;;;;;;23.85;12.85;;;25.50;74.70;;;;;;4188302;28;20431;-55
2023/09/11 06:06:53;;;;;;;21.60;12.75;;;25.50;74.60;;;;;;4187203;28;20559;-54
2023/09/11 06:09:34;;;;;;;23.77;12.95;;;25.40;74.50;;;;;;4187694;28;20060;-54
2023/09/11 06:12:15;;;;;;;21.23;12.45;;;25.50;74.40;;;;;;4189115;28;20048;-59
2023/09/11 06:14:56;;;;;;;;;;;25.50;74.90;;;;;;4190295;28;20051;-59
2023/09/11 06:17:37;;;;;;;23.20;12.82;;;25.50;75.20;;;;;;4187774;28;20263;-57
2023/09/11 06:20:26;;;;;;;23.83;12.75;;;25.50;75.20;;;;;;4188610;28;20079;-56
2023/09/11 06:23:10;;;;;;;23.70;13.90;;;25.50;74.90;;;;;;4170624;28;20048;-55
2023/09/11 06:25:51;;;;;;;24.60;12.75;;;25.50;74.70;;;;;;4173013;28;20052;-58
2023/09/11 06:28:32;;;;;;;25.55;12.98;;;25.50;74.80;;;;;;4172709;28;20051;-58
2023/09/11 06:31:14;;;;;;;19.33;12.43;;;25.40;74.60;;;;;;4177892;28;20053;-58
2023/09/11 06:33:55;;;;;;;21.52;13.02;;;25.50;74.80;;;;;;4188240;28;20399;-58
2023/09/11 06:36:37;;;;;;;21.98;13.88;;;25.50;74.90;;;;;;4188283;28;20086;-57
2023/09/11 06:39:19;;;;;;;24.17;14.50;;;25.50;74.90;;;;;;4176988;28;20047;-58
2023/09/11 06:41:59;;;;;;;26.83;13.43;;;25.50;75.00;;;;;;4183863;28;20055;-58
2023/09/11 06:44:40;;;;;;;21.45;12.93;;;25.50;75.10;;;;;;4188011;28;20059;-59
2023/09/11 06:47:21;;;;;;;21.17;13.68;;;25.50;75.00;;;;;;4188802;28;20059;-56
2023/09/11 06:50:02;;;;;;;22.27;12.93;;;25.50;75.70;;;;;;4188821;28;20055;-55
2023/09/11 06:52:44;;;;;;;28.92;12.27;;;25.50;75.20;;;;;;4189324;28;20464;-57
2023/09/11 06:55:25;;;;;;;26.45;13.02;;;25.50;75.20;;;;;;4186909;28;20617;-57
2023/09/11 06:58:06;;;;;;;18.27;12.27;;;25.50;75.30;;;;;;4188523;28;20070;-58
2023/09/11 07:00:47;;;;;;;26.83;13.30;;;25.40;75.30;;;;;;4188594;28;20079;-58
2023/09/11 07:03:29;;;;;;;24.23;13.68;;;25.50;75.60;;;;;;4188542;28;20063;-59
2023/09/11 07:06:10;;;;;;;22.40;13.65;;;25.50;75.70;;;;;;4188612;28;20078;-58
2023/09/11 07:08:52;;;;;;;21.42;12.85;;;25.40;75.70;;;;;;4186372;28;20052;-59
2023/09/11 07:11:33;;;;;;;23.35;13.63;;;25.40;75.90;;;;;;4187974;28;20170;-58
2023/09/11 07:14:19;;;;;;;;;;;25.50;76.10;;;;;;4186730;28;20063;-59
2023/09/11 07:17:03;;;;;;;24.88;14.00;;;25.50;76.00;;;;;;4188074;28;19999;-58
2023/09/11 07:19:46;;;;;;;27.48;13.88;;;25.50;76.10;;;;;;4185742;28;20453;-59
2023/09/11 07:22:28;;;;;;;21.50;13.35;;;25.50;76.30;;;;;;4176773;28;20149;-57
2023/09/11 07:25:12;;;;;;;21.75;13.80;;;25.50;76.60;;;;;;4187127;28;20059;-56
2023/09/11 07:27:55;;;;;;;26.20;12.98;;;25.60;76.80;;;;;;4187005;28;20178;-54
2023/09/11 07:30:36;;;;;;;21.58;12.80;;;25.60;77.00;;;;;;4187678;28;20075;-55
2023/09/11 07:33:19;;;;;;;17.90;13.15;;;25.60;77.10;;;;;;4187230;28;20056;-56
2023/09/11 07:36:00;;;;;;;25.10;12.70;;;25.60;77.30;;;;;;4188293;28;20553;-55
2023/09/11 07:38:44;;;;;;;22.35;12.80;;;25.70;77.40;;;;;;4171121;28;20060;-56
2023/09/11 07:41:28;;;;;;;26.00;14.23;;;25.80;77.60;;;;;;4171771;28;20044;-56
2023/09/11 07:44:09;;;;;;;19.05;12.90;;;25.70;77.20;;;;;;4171179;28;20071;-57
2023/09/11 07:46:50;;;;;;;23.08;13.07;;;25.80;77.20;;;;;;4174391;28;20052;-52
2023/09/11 07:49:31;;;;;;;24.15;13.10;;;25.80;77.20;;;;;;4186716;28;20098;-55
2023/09/11 07:52:12;;;;;;;;;;;25.90;77.30;;;;;;4187160;28;20054;-56
2023/09/11 07:54:53;;;;;;;21.52;13.10;;;25.90;77.20;;;;;;4187755;28;19927;-56
2023/09/11 07:57:39;;;;;;;;;;;25.90;77.20;;;;;;4187910;28;20420;-54
2023/09/11 08:00:21;;;;;;;21.45;13.13;;;25.90;77.30;;;;;;4188654;28;19927;-55
2023/09/11 08:03:03;;;;;;;20.90;12.73;;;25.90;77.20;;;;;;4188250;28;20415;-54
2023/09/11 08:05:44;;;;;;;19.38;12.80;;;25.90;77.50;;;;;;4175287;28;20048;-58
2023/09/11 08:08:25;;;;;;;21.05;12.35;;;26.00;77.50;;;;;;4186528;28;20047;-58
2023/09/11 08:11:15;;;;;;;20.92;13.18;;;26.00;77.60;;;;;;4187989;28;20063;-58
2023/09/11 08:13:57;;;;;;;19.40;13.90;;;26.10;77.90;;;;;;4187998;28;20613;-58
2023/09/11 08:16:38;;;;;;;22.70;12.55;;;26.10;77.70;;;;;;4188080;28;20129;-57
2023/09/11 08:19:19;;;;;;;17.30;11.30;;;26.20;77.80;;;;;;4188112;28;20052;-58
2023/09/11 08:22:00;;;;;;;15.38;10.98;;;26.20;77.90;;;;;;4187565;28;20051;-58
2023/09/11 08:24:41;;;;;;;15.70;10.55;;;26.20;78.10;;;;;;4187970;28;20101;-58
2023/09/11 08:27:23;;;;;;;19.75;11.90;;;26.30;78.20;;;;;;4187384;28;20411;-58
2023/09/11 08:30:05;;;;;;;;;;;26.30;78.10;;;;;;4186195;28;20055;-57
2023/09/11 08:32:47;;;;;;;16.40;11.07;;;26.30;77.80;;;;;;4187508;28;20337;-58
2023/09/11 08:35:28;;;;;;;16.65;10.05;;;26.30;77.60;;;;;;4187255;28;20075;-57
2023/09/11 08:38:09;;;;;;;23.60;11.02;;;26.40;77.70;;;;;;4186836;28;20448;-57
2023/09/11 08:40:51;;;;;;;17.45;10.48;;;26.40;77.40;;;;;;4187414;28;20077;-57
2023/09/11 08:43:32;;;;;;;;;;;26.40;77.30;;;;;;4187678;28;20141;-55
2023/09/11 08:46:16;;;;;;;17.27;10.18;;;26.50;77.10;;;;;;4187126;28;19955;-55
2023/09/11 08:49:00;;;;;;;16.05;10.40;;;26.50;77.30;;;;;;4170748;28;20094;-55
2023/09/11 08:51:48;;;;;;;14.90;10.38;;;26.50;77.40;;;;;;4163637;28;20174;-57
2023/09/11 08:54:34;;;;;;;14.60;10.18;;;26.50;77.50;;;;;;4169720;28;20113;-57
2023/09/11 08:57:16;;;;;;;15.43;9.35;;;26.60;77.30;;;;;;4176227;28;20511;-58
2023/09/11 09:00:03;;;;;;;15.85;9.93;;;26.60;76.90;;;;;;4185354;28;20055;-57
2023/09/11 09:02:47;;;;;;;18.17;10.25;;;26.60;77.00;;;;;;4187002;28;20097;-57
2023/09/11 09:05:30;;;;;;;16.08;9.98;;;26.70;77.10;;;;;;4186774;28;20067;-57
2023/09/11 09:08:14;;;;;;;14.95;9.02;;;26.70;77.00;;;;;;4184521;28;20075;-57
2023/09/11 09:10:55;;;;;;;15.70;8.82;;;26.80;76.80;;;;;;4185961;28;20141;-59
2023/09/11 09:13:37;;;;;;;13.77;8.65;;;26.80;76.30;;;;;;4197876;28;20619;-58
2023/09/11 09:16:19;;;;;;;18.75;8.40;;;26.80;76.20;;;;;;4184929;28;20520;-58
2023/09/11 09:19:01;;;;;;;16.08;8.50;;;26.90;76.30;;;;;;4185814;28;20051;-53
2023/09/11 09:22:12;;;;;;;13.32;8.77;;;26.90;76.30;;;;;;4176160;28;20114;-56
2023/09/11 09:24:54;;;;;;;;;;;26.90;76.80;;;;;;4186523;28;20050;-56
2023/09/11 09:27:36;;;;;;;12.80;8.88;;;27.00;75.90;;;;;;4183740;28;19935;-56
2023/09/11 09:30:21;;;;;;;16.27;7.88;;;27.00;76.10;;;;;;4168109;28;20067;-55
2023/09/11 09:33:03;;;;;;;13.32;7.32;;;27.00;75.90;;;;;;4167082;28;20055;-52
2023/09/11 09:35:46;;;;;;;10.52;7.22;;;27.00;75.40;;;;;;4169175;28;20062;-59
2023/09/11 09:38:27;;;;;;;13.27;7.47;;;27.10;75.10;;;;;;4172123;28;20116;-59
2023/09/11 09:41:09;;;;;;;;;;;27.10;75.00;;;;;;4186965;28;20052;-59
2023/09/11 09:43:54;;;;;;;11.40;7.45;;;27.10;75.00;;;;;;4186694;28;19943;-59
2023/09/11 09:46:42;;;;;;;9.75;6.82;;;27.20;74.90;;;;;;4186167;28;20059;-59
2023/09/11 09:49:24;;;;;;;17.05;6.88;;;27.20;74.40;;;;;;4186011;28;20052;-58
2023/09/11 09:52:07;;;;;;;13.77;6.68;;;27.20;74.40;;;;;;4170692;28;20122;-58
2023/09/11 09:54:50;;;;;;;9.18;7.07;;;27.20;74.00;;;;;;4185872;28;20511;-59
2023/09/11 09:57:31;;;;;;;11.85;6.78;;;27.20;73.70;;;;;;4186358;28;20059;-59
2023/09/11 10:00:17;;;;;;;;;;;27.30;73.70;;;;;;4185996;28;20052;-58
2023/09/11 10:02:58;;;;;;;13.45;7.07;;;27.30;73.80;;;;;;4185165;28;20388;-55
2023/09/11 10:05:41;;;;;;;10.60;6.95;;;27.30;73.40;;;;;;4184686;28;20056;-58
2023/09/11 10:08:23;;;;;;;9.98;6.30;;;27.40;73.30;;;;;;4185671;28;20059;-58
2023/09/11 10:11:05;;;;;;;15.77;7.50;;;27.40;73.10;;;;;;4186472;28;20481;-56
2023/09/11 10:13:46;;;;;;;12.38;6.38;;;27.40;73.00;;;;;;4187061;28;20403;-58
2023/09/11 10:16:28;;;;;;;13.55;7.05;;;27.40;72.80;;;;;;4157781;28;20112;-53
2023/09/11 10:19:10;;;;;;;12.55;7.22;;;27.40;72.30;;;;;;4166224;28;20044;-58
2023/09/11 10:21:51;;;;;;;13.77;7.60;;;27.40;72.10;;;;;;4186479;28;20056;-56
2023/09/11 10:24:33;;;;;;;13.68;7.20;;;27.50;72.00;;;;;;4183726;28;20431;-54
2023/09/11 10:27:14;;;;;;;14.77;7.72;;;27.50;71.70;;;;;;4187837;28;20502;-53
2023/09/11 10:30:03;;;;;;;20.80;7.88;;;27.50;71.50;;;;;;4175449;28;20048;-55
2023/09/11 10:32:50;;;;;;;9.40;7.35;;;27.50;72.20;;;;;;4186399;28;20047;-55
2023/09/11 10:35:34;;;;;;;10.48;7.03;;;27.60;71.40;;;;;;4189018;28;20135;-54
2023/09/11 10:38:17;;;;;;;12.88;7.20;;;27.60;71.20;;;;;;4188695;28;20059;-58
2023/09/11 10:41:01;;;;;;;9.57;7.00;;;27.60;70.90;;;;;;4188308;28;20055;-58
2023/09/11 10:43:45;;;;;;;11.70;7.28;;;27.60;70.50;;;;;;4189428;28;20495;-55
2023/09/11 10:46:34;;;;;;;11.48;7.03;;;27.60;70.70;;;;;;4173298;28;20503;-53
2023/09/11 10:49:16;;;;;;;12.57;7.95;;;27.70;70.40;;;;;;4172938;28;20101;-52
2023/09/11 10:51:58;;;;;;;18.23;7.75;;;27.70;70.40;;;;;;4172633;28;20828;-50
2023/09/11 10:54:40;;;;;;;11.35;8.05;;;27.80;70.60;;;;;;4178469;28;20047;-54
2023/09/11 10:57:24;;;;;;;15.38;8.02;;;27.80;70.60;;;;;;4189708;28;20506;-53
2023/09/11 11:00:06;;;;;;;13.95;8.45;;;27.70;70.30;;;;;;4188952;28;20056;-51
2023/09/11 11:02:48;;;;;;;16.23;7.95;;;27.80;70.10;;;;;;4186549;28;20178;-55
2023/09/11 11:05:29;;;;;;;13.57;7.53;;;27.80;70.30;;;;;;4188529;28;20186;-55
2023/09/11 11:08:11;;;;;;;;;;;27.90;70.30;;;;;;4187745;28;20047;-57
2023/09/11 11:10:56;;;;;;;14.07;7.32;;;27.90;70.30;;;;;;4185184;28;19931;-57
2023/09/11 11:13:59;;;;;;;11.68;8.55;;;27.90;70.20;;;;;;4184661;28;20070;-58
2023/09/11 11:16:41;;;;;;;10.77;7.78;;;27.90;70.00;;;;;;4181627;28;20507;-59
2023/09/11 11:19:29;;;;;;;12.05;8.80;;;27.90;69.90;;;;;;4187358;28;20055;-57
2023/09/11 11:22:28;;;;;;;13.98;9.30;;;27.90;69.70;;;;;;4188047;28;20553;-58
2023/09/11 11:25:11;;;;;;;15.85;9.05;;;28.00;69.90;;;;;;4187487;28;20424;-58
2023/09/11 11:27:53;;;;;;;14.65;9.25;;;28.00;69.80;;;;;;4188094;28;20159;-58
2023/09/11 11:30:36;;;;;;;10.23;8.32;;;28.00;69.70;;;;;;4185757;28;20055;-60
2023/09/11 11:33:21;;;;;;;13.23;8.35;;;28.00;69.80;;;;;;4180171;28;20451;-59
2023/09/11 11:36:03;;;;;;;9.00;7.50;;;28.10;69.80;;;;;;4187273;28;20051;-52
2023/09/11 11:38:45;;;;;;;14.20;8.57;;;28.10;69.80;;;;;;4184379;28;20668;-53
2023/09/11 11:41:26;;;;;;;10.10;8.05;;;28.10;69.80;;;;;;4170286;28;20048;-59
2023/09/11 11:44:08;;;;;;;14.50;7.90;;;28.10;69.60;;;;;;4178442;28;20059;-52
2023/09/11 11:46:52;;;;;;;8.60;7.65;;;28.10;69.50;;;;;;4187082;28;20383;-51
2023/09/11 11:49:34;;;;;;;11.05;7.53;;;28.20;69.60;;;;;;4158752;28;20549;-52
2023/09/11 11:52:15;;;;;;;11.88;9.05;;;28.20;69.60;;;;;;4170485;28;20615;-52
2023/09/11 11:54:57;;;;;;;14.32;8.95;;;28.20;69.10;;;;;;4181688;28;20110;-53
2023/09/11 11:57:39;;;;;;;13.95;8.35;;;28.20;69.30;;;;;;4174240;28;20186;-52
2023/09/11 12:00:21;;;;;;;11.10;9.07;;;28.30;69.30;;;;;;4187351;28;20060;-58
2023/09/11 12:03:08;;;;;;;14.07;9.77;;;28.30;69.40;;;;;;4187706;28;20403;-59
2023/09/11 12:05:50;;;;;;;11.10;8.60;;;28.30;69.30;;;;;;4186038;28;20055;-59
2023/09/11 12:08:31;;;;;;;12.05;8.60;;;28.30;69.40;;;;;;4186971;28;20419;-59
2023/09/11 12:11:12;;;;;;;14.27;8.40;;;28.40;69.30;;;;;;4187351;28;20060;-59
2023/09/11 12:13:53;;;;;;;12.20;9.07;;;28.40;69.40;;;;;;4187475;28;20051;-59
2023/09/11 12:16:34;;;;;;;11.45;8.55;;;28.40;69.30;;;;;;4171351;28;20495;-59
2023/09/11 12:19:19;;;;;;;9.77;8.85;;;28.40;69.10;;;;;;4171467;28;20411;-59
2023/09/11 12:22:02;;;;;;;13.40;9.48;;;28.50;69.20;;;;;;4169869;28;20503;-59
2023/09/11 12:24:43;;;;;;;11.27;8.88;;;28.50;68.90;;;;;;4174618;28;20069;-59
2023/09/11 12:27:24;;;;;;;;;;;28.50;68.80;;;;;;4188141;28;20510;-59
2023/09/11 12:30:07;;;;;;;10.48;6.72;;;28.50;68.80;;;;;;4187708;28;19928;-60
2023/09/11 12:32:49;;;;;;;10.48;5.65;;;28.60;68.80;;;;;;4187532;28;20382;-60
2023/09/11 12:35:33;;;;;;;7.10;6.40;;;28.60;68.60;;;;;;4187067;28;20646;-60
2023/09/11 12:38:14;;;;;;;7.57;5.60;;;28.60;67.60;;;;;;4187168;28;20055;-59
2023/09/11 12:40:55;;;;;;;7.30;6.32;;;28.60;67.80;;;;;;4187742;28;20083;-59
2023/09/11 12:43:38;;;;;;;9.07;6.82;;;28.60;66.10;;;;;;4186472;28;20379;-60
2023/09/11 12:46:19;;;;;;;7.65;6.95;;;28.60;67.10;;;;;;4186794;28;20121;-60
2023/09/11 12:49:00;;;;;;;11.88;6.32;;;28.60;66.50;;;;;;4186734;28;20387;-53
2023/09/11 12:51:43;;;;;;;10.20;6.50;;;28.70;66.60;;;;;;4182310;28;20122;-60
2023/09/11 12:54:25;;;;;;;10.52;6.63;;;28.70;66.20;;;;;;4170944;28;20712;-59
2023/09/11 12:57:07;;;;;;;15.15;6.78;;;28.70;65.90;;;;;;4181711;28;20133;-60
2023/09/11 12:59:48;;;;;;;12.02;6.25;;;28.70;65.50;;;;;;4175615;28;20114;-58
2023/09/11 13:02:32;;;;;;;15.50;7.57;;;28.70;66.10;;;;;;4174583;28;20060;-58
2023/09/11 13:05:14;;;;;;;10.27;7.18;;;28.70;66.20;;;;;;4169928;28;20056;-58
2023/09/11 13:07:57;;;;;;;10.85;8.68;;;28.70;66.70;;;;;;4170006;28;20071;-58
2023/09/11 13:10:38;;;;;;;9.55;8.23;;;28.70;66.20;;;;;;4184685;28;20055;-58
2023/09/11 13:13:20;;;;;;;11.07;7.30;;;28.70;66.50;;;;;;4170588;28;20097;-58
2023/09/11 13:16:13;;;;;;;9.25;7.80;;;28.70;66.30;;;;;;4181824;28;20101;-57
2023/09/11 13:18:54;;;;;;;9.75;7.53;;;28.70;66.70;;;;;;4186507;28;20483;-58
2023/09/11 13:21:35;;;;;;;7.28;6.47;;;28.70;66.50;;;;;;4170310;28;20349;-58
2023/09/11 13:24:18;;;;;;;9.98;6.30;;;28.70;65.90;;;;;;4169637;28;20116;-58
2023/09/11 13:26:59;;;;;;;7.18;5.97;;;28.70;65.50;;;;;;4165998;28;20174;-57
2023/09/11 13:29:40;;;;;;;8.63;6.22;;;28.70;66.00;;;;;;4179401;28;20055;-58
2023/09/11 13:32:21;;;;;;;9.27;6.20;;;28.70;65.60;;;;;;4186699;28;20067;-58
2023/09/11 13:35:02;;;;;;;;;;;28.70;66.00;;;;;;4187046;28;20048;-58
2023/09/11 13:37:46;;;;;;;14.23;7.53;;;28.70;66.20;;;;;;4185806;28;19931;-57
2023/09/11 13:40:28;;;;;;;9.52;6.40;;;28.70;66.30;;;;;;4183623;28;20079;-58
2023/09/11 13:43:10;;;;;;;8.02;7.30;;;28.70;66.20;;;;;;4186158;28;20178;-58
2023/09/11 13:45:50;;;;;;;8.90;7.15;;;28.70;66.10;;;;;;4186685;28;20503;-58
2023/09/11 13:48:32;;;;;;;8.27;6.05;;;28.70;66.20;;;;;;4185981;28;20505;-58
2023/09/11 13:51:12;;;;;;;14.13;7.30;;;28.80;66.70;;;;;;4187640;28;20048;-57
2023/09/11 13:53:54;;;;;;;8.60;7.55;;;28.80;66.60;;;;;;4186934;28;20086;-58
2023/09/11 13:56:36;;;;;;;6.97;6.28;;;28.80;66.10;;;;;;4188856;28;20051;-59
2023/09/11 13:59:17;;;;;;;8.00;6.53;;;28.80;66.60;;;;;;4174610;28;20166;-57